Time;durP1;ratioP1;P1;durP2;ratioP2;P2;SDS_P1;SDS_P2;PMS_P1;PMS_P2;Temp;Humidity;BMP_temperature;BMP_pressure;BME280_temperature;BME280_humidity;BME280_pressure;Samples;Min_cycle;Max_cycle;Signal;HPM_P1;HPM_P2
2021/01/03 00:00:14;;;;;;;14.20;11.90;;;8.00;99.90;;;;;;5099511;28;20032;-61
2021/01/03 00:02:39;;;;;;;14.17;12.67;;;7.90;99.90;;;;;;5092698;28;20044;-61
2021/01/03 00:05:05;;;;;;;13.20;11.77;;;8.00;99.90;;;;;;5100779;27;20031;-61
2021/01/03 00:07:31;;;;;;;14.60;12.23;;;8.00;99.90;;;;;;5093643;28;20048;-62
2021/01/03 00:13:19;;;;;;;13.70;12.27;;;8.00;99.90;;;;;;5039500;28;20508;-61
2021/01/03 00:15:44;;;;;;;13.37;11.40;;;7.90;99.90;;;;;;5101281;28;20031;-62
2021/01/03 00:18:11;;;;;;;12.47;11.17;;;7.80;99.90;;;;;;5096012;28;20035;-62
2021/01/03 00:20:37;;;;;;;13.37;11.27;;;7.90;99.90;;;;;;5097798;28;20064;-61
2021/01/03 00:23:03;;;;;;;14.33;11.67;;;8.00;99.90;;;;;;5093527;28;20474;-61
2021/01/03 00:25:30;;;;;;;13.00;11.70;;;7.80;99.90;;;;;;5101122;28;20044;-61
2021/01/03 00:27:56;;;;;;;13.47;11.83;;;7.90;99.90;;;;;;5077452;28;20047;-61
2021/01/03 00:30:27;;;;;;;12.90;11.53;;;7.90;99.90;;;;;;5101413;28;20036;-61
2021/01/03 00:32:53;;;;;;;13.77;11.10;;;8.00;99.90;;;;;;5091553;28;20047;-61
2021/01/03 00:35:28;;;;;;;13.80;11.90;;;7.90;99.90;;;;;;5096886;28;20035;-62
2021/01/03 00:37:58;;;;;;;16.10;11.97;;;8.00;99.90;;;;;;5093775;28;20081;-61
2021/01/03 00:40:23;;;;;;;17.37;13.80;;;8.00;99.90;;;;;;5096454;28;20060;-61
2021/01/03 00:42:49;;;;;;;16.37;13.43;;;8.00;99.90;;;;;;5097386;28;20044;-61
2021/01/03 00:45:15;;;;;;;14.83;13.17;;;7.90;99.90;;;;;;5103074;28;20093;-61
2021/01/03 00:47:41;;;;;;;16.87;14.43;;;8.00;99.90;;;;;;5097837;28;20643;-61
2021/01/03 00:50:10;;;;;;;15.53;13.80;;;8.00;99.90;;;;;;5095224;28;20114;-61
2021/01/03 00:52:36;;;;;;;16.40;14.43;;;8.00;99.90;;;;;;5079423;28;20035;-61
2021/01/03 00:55:02;;;;;;;15.40;12.80;;;8.10;99.90;;;;;;5092609;28;20615;-61
2021/01/03 00:57:28;;;;;;;13.00;11.70;;;8.00;99.90;;;;;;5095882;28;20031;-61
2021/01/03 00:59:53;;;;;;;14.00;12.50;;;8.10;99.90;;;;;;5090433;28;20047;-61
2021/01/03 01:02:19;;;;;;;15.73;13.67;;;8.10;99.90;;;;;;5095284;28;20503;-61
2021/01/03 01:04:45;;;;;;;13.30;12.00;;;8.10;99.90;;;;;;5093069;28;20086;-61
2021/01/03 01:07:10;;;;;;;13.57;12.10;;;8.10;99.90;;;;;;5096572;28;20166;-62
2021/01/03 01:09:36;;;;;;;15.83;13.03;;;8.00;99.90;;;;;;5089516;28;20036;-61
2021/01/03 01:12:02;;;;;;;13.73;11.57;;;8.00;99.90;;;;;;5095666;28;20055;-61
2021/01/03 01:14:27;;;;;;;13.27;11.87;;;8.10;99.90;;;;;;5094750;28;20507;-62
2021/01/03 01:16:53;;;;;;;12.73;11.43;;;8.10;99.90;;;;;;5096424;28;20553;-60
2021/01/03 01:19:21;;;;;;;13.13;11.83;;;8.00;99.90;;;;;;5095679;28;20118;-60
2021/01/03 01:21:47;;;;;;;14.20;12.77;;;8.00;99.90;;;;;;5100873;28;20051;-62
2021/01/03 01:24:12;;;;;;;14.63;13.17;;;7.90;99.90;;;;;;5097607;28;20031;-61
2021/01/03 01:26:38;;;;;;;15.07;12.63;;;7.90;99.90;;;;;;5099469;28;20100;-61
2021/01/03 01:29:04;;;;;;;16.57;14.80;;;7.90;99.90;;;;;;5086273;28;20052;-61
2021/01/03 01:31:29;;;;;;;15.53;13.93;;;8.00;99.90;;;;;;5093161;28;20043;-61
2021/01/03 01:33:55;;;;;;;15.20;13.70;;;7.90;99.90;;;;;;5096355;28;20069;-61
2021/01/03 01:36:21;;;;;;;14.87;13.23;;;8.00;99.90;;;;;;5094814;28;20029;-60
2021/01/03 01:38:46;;;;;;;18.30;13.63;;;8.00;99.90;;;;;;5097060;28;20119;-61
2021/01/03 01:41:12;;;;;;;15.43;13.43;;;8.00;99.90;;;;;;5090477;28;20619;-61
2021/01/03 01:43:37;;;;;;;14.93;12.63;;;7.90;99.90;;;;;;5098526;28;20123;-61
2021/01/03 01:46:04;;;;;;;16.47;13.13;;;7.90;99.90;;;;;;5093190;28;20067;-61
2021/01/03 01:48:36;;;;;;;15.73;13.90;;;7.90;99.90;;;;;;5102758;27;20097;-62
2021/01/03 01:51:07;;;;;;;15.50;13.87;;;7.90;99.90;;;;;;5092674;28;20031;-61
2021/01/03 01:53:54;;;;;;;15.23;13.50;;;7.90;99.90;;;;;;5102276;27;20487;-61
2021/01/03 01:57:06;;;;;;;17.07;14.33;;;8.00;99.90;;;;;;5098587;27;20161;-62
2021/01/03 01:59:38;;;;;;;16.53;13.43;;;8.00;99.90;;;;;;5075236;27;20027;-62
2021/01/03 02:02:39;;;;;;;13.97;12.37;;;8.00;99.90;;;;;;5095638;27;20036;-61
2021/01/03 02:12:19;;;;;;;14.97;13.03;;;8.00;99.90;;;;;;5066804;28;20108;-60
2021/01/03 02:14:45;;;;;;;12.63;11.37;;;7.90;99.90;;;;;;5102795;27;20127;-61
2021/01/03 02:17:10;;;;;;;13.57;12.17;;;7.90;99.90;;;;;;5102826;27;20143;-61
2021/01/03 02:19:36;;;;;;;14.80;11.27;;;7.80;99.90;;;;;;5103629;27;20036;-60
2021/01/03 02:22:41;;;;;;;13.93;11.87;;;7.80;99.90;;;;;;5097641;27;20047;-61
2021/01/03 02:25:13;;;;;;;13.60;12.07;;;7.80;99.90;;;;;;5072574;27;20409;-61
2021/01/03 02:28:03;;;;;;;12.13;10.20;;;7.80;99.90;;;;;;5093183;27;20044;-61
2021/01/03 02:30:30;;;;;;;13.33;11.93;;;7.70;99.90;;;;;;5079557;27;20032;-61
2021/01/03 02:33:16;;;;;;;14.23;12.73;;;7.70;99.90;;;;;;5100881;27;20092;-61
2021/01/03 02:35:44;;;;;;;13.23;11.83;;;7.80;99.90;;;;;;5097602;28;20516;-61
2021/01/03 02:38:12;;;;;;;11.67;10.57;;;7.80;99.90;;;;;;5088846;28;20035;-59
2021/01/03 02:40:37;;;;;;;11.73;10.53;;;7.80;99.90;;;;;;5099971;28;20127;-61
2021/01/03 02:43:03;;;;;;;10.70;9.57;;;7.80;99.90;;;;;;5094081;28;20152;-61
2021/01/03 02:45:32;;;;;;;12.47;11.27;;;7.70;99.90;;;;;;5103621;27;20080;-61
2021/01/03 02:48:05;;;;;;;13.40;12.10;;;7.80;99.90;;;;;;5090826;27;20043;-61
2021/01/03 02:50:31;;;;;;;13.37;11.97;;;7.80;99.90;;;;;;5103235;28;20036;-61
2021/01/03 02:52:56;;;;;;;13.00;11.70;;;7.80;99.90;;;;;;5100011;27;20040;-61
2021/01/03 02:55:22;;;;;;;14.37;12.97;;;7.80;99.90;;;;;;5098115;27;20074;-61
2021/01/03 02:57:48;;;;;;;14.80;12.90;;;7.80;99.90;;;;;;5098933;27;20067;-61
2021/01/03 03:00:40;;;;;;;14.27;12.87;;;7.80;99.90;;;;;;5082675;28;20028;-61
2021/01/03 03:03:08;;;;;;;15.27;13.67;;;7.80;99.90;;;;;;5068571;28;20503;-61
2021/01/03 03:05:33;;;;;;;15.27;13.87;;;7.80;99.90;;;;;;5097834;27;20035;-62
2021/01/03 03:07:59;;;;;;;15.40;13.80;;;7.80;99.90;;;;;;5088901;28;20052;-61
2021/01/03 03:10:25;;;;;;;14.97;13.20;;;7.80;99.90;;;;;;5098218;28;20035;-61
2021/01/03 03:12:53;;;;;;;14.57;13.17;;;7.70;99.90;;;;;;5095909;27;20036;-61
2021/01/03 03:15:21;;;;;;;14.90;13.40;;;7.80;99.90;;;;;;5091941;27;20607;-61
2021/01/03 03:17:47;;;;;;;15.73;14.00;;;7.80;99.90;;;;;;5103984;27;20027;-61
2021/01/03 03:20:14;;;;;;;14.67;13.17;;;7.80;99.90;;;;;;5093326;27;20035;-61
2021/01/03 03:22:39;;;;;;;14.87;13.43;;;7.70;99.90;;;;;;5097588;27;20042;-61
2021/01/03 03:25:07;;;;;;;15.20;13.70;;;7.70;99.90;;;;;;5092678;27;20118;-62
2021/01/03 03:27:32;;;;;;;14.57;13.17;;;7.70;99.90;;;;;;5086209;28;20036;-62
2021/01/03 03:29:58;;;;;;;16.90;15.20;;;7.70;99.90;;;;;;5091054;28;20059;-61
2021/01/03 03:32:24;;;;;;;15.80;14.20;;;7.60;99.90;;;;;;5097837;27;20035;-62
2021/01/03 03:34:49;;;;;;;15.27;13.67;;;7.70;99.90;;;;;;5087392;28;20889;-61
2021/01/03 03:37:16;;;;;;;16.27;14.53;;;7.60;99.90;;;;;;5095050;28;20032;-62
2021/01/03 03:39:41;;;;;;;16.13;14.30;;;7.60;99.90;;;;;;5096253;27;20036;-61
2021/01/03 03:42:08;;;;;;;16.00;14.43;;;7.60;99.90;;;;;;5103669;27;20093;-61
2021/01/03 03:44:33;;;;;;;16.67;14.93;;;7.60;99.90;;;;;;5103660;27;20036;-61
2021/01/03 03:47:01;;;;;;;18.13;15.90;;;7.70;99.90;;;;;;5092408;27;20050;-61
2021/01/03 03:49:29;;;;;;;21.83;17.10;;;7.70;99.90;;;;;;5102275;27;20059;-62
2021/01/03 03:51:56;;;;;;;21.80;16.20;;;7.70;99.90;;;;;;5095381;28;20085;-61
2021/01/03 03:54:22;;;;;;;16.97;15.13;;;7.70;99.90;;;;;;5097821;27;20032;-61
2021/01/03 03:56:52;;;;;;;17.00;14.53;;;7.70;99.90;;;;;;5092752;27;20032;-61
2021/01/03 03:59:18;;;;;;;18.90;15.50;;;7.70;99.90;;;;;;5095699;27;20617;-61
2021/01/03 04:01:44;;;;;;;21.87;16.10;;;7.60;99.90;;;;;;5098541;27;20045;-61
2021/01/03 04:04:11;;;;;;;23.93;17.90;;;7.50;99.90;;;;;;5099770;27;20043;-61
2021/01/03 04:06:37;;;;;;;24.80;18.93;;;7.40;99.90;;;;;;5089670;27;20044;-61
2021/01/03 04:09:03;;;;;;;23.87;17.27;;;7.50;99.90;;;;;;5097131;27;20131;-61
2021/01/03 04:11:29;;;;;;;28.00;20.37;;;7.40;99.90;;;;;;5095441;28;20520;-60
2021/01/03 04:13:55;;;;;;;27.33;19.13;;;7.40;99.90;;;;;;5103018;28;20042;-61
2021/01/03 04:16:21;;;;;;;36.67;21.80;;;7.40;99.90;;;;;;5089607;28;20085;-60
2021/01/03 04:18:52;;;;;;;30.43;20.63;;;7.40;99.90;;;;;;5095369;28;20074;-61
2021/01/03 04:21:18;;;;;;;24.93;19.87;;;7.30;99.90;;;;;;5099948;28;20038;-61
2021/01/03 04:23:44;;;;;;;47.40;22.67;;;7.40;99.90;;;;;;5099836;28;20035;-61
2021/01/03 04:26:20;;;;;;;35.43;21.70;;;7.40;99.90;;;;;;5097804;28;20038;-60
2021/01/03 04:28:47;;;;;;;26.73;20.40;;;7.40;99.90;;;;;;5094004;27;20130;-61
2021/01/03 04:31:19;;;;;;;30.43;20.03;;;7.40;99.90;;;;;;5095659;28;20039;-60
2021/01/03 04:33:45;;;;;;;38.70;20.97;;;7.40;99.90;;;;;;5092912;28;20028;-61
2021/01/03 04:36:19;;;;;;;61.27;21.10;;;7.40;99.90;;;;;;5101064;27;20042;-60
2021/01/03 04:38:45;;;;;;;44.77;22.00;;;7.30;99.90;;;;;;5081327;28;20050;-60
2021/01/03 04:41:27;;;;;;;34.43;20.30;;;7.40;99.90;;;;;;5102298;28;20044;-60
2021/01/03 04:43:55;;;;;;;52.23;22.47;;;7.40;99.90;;;;;;5090866;28;20483;-60
2021/01/03 04:46:24;;;;;;;46.43;22.67;;;7.30;99.90;;;;;;5087800;28;20035;-60
2021/01/03 04:48:57;;;;;;;52.70;24.87;;;7.40;99.90;;;;;;5091300;28;20040;-59
2021/01/03 04:51:30;;;;;;;55.23;23.20;;;7.40;99.90;;;;;;5094935;28;20106;-60
2021/01/03 04:54:25;;;;;;;33.33;22.00;;;7.30;99.90;;;;;;5092491;28;20040;-60
2021/01/03 04:56:55;;;;;;;40.97;22.23;;;7.40;99.90;;;;;;5096087;28;20092;-57
2021/01/03 04:59:39;;;;;;;32.47;21.27;;;7.50;99.90;;;;;;5099621;28;20034;-60
2021/01/03 05:02:07;;;;;;;30.80;20.57;;;7.50;99.90;;;;;;5084167;28;20397;-60
2021/01/03 05:04:52;;;;;;;34.17;21.90;;;7.50;99.90;;;;;;5076225;28;20741;-60
2021/01/03 05:07:30;;;;;;;35.70;21.20;;;7.50;99.90;;;;;;5102292;28;20508;-61
2021/01/03 05:10:22;;;;;;;34.57;22.30;;;7.50;99.90;;;;;;5053579;28;20576;-61
2021/01/03 05:13:06;;;;;;;35.33;22.00;;;7.50;99.90;;;;;;5096703;28;20419;-61
2021/01/03 05:15:34;;;;;;;32.53;20.53;;;7.50;99.90;;;;;;5028432;28;20039;-61
2021/01/03 05:18:01;;;;;;;36.70;22.93;;;7.30;99.90;;;;;;5093155;28;20035;-61
2021/01/03 05:20:27;;;;;;;43.60;23.10;;;7.50;99.90;;;;;;5092565;28;20136;-61
2021/01/03 05:22:52;;;;;;;32.83;21.50;;;7.40;99.90;;;;;;5100736;28;20043;-60
2021/01/03 05:25:37;;;;;;;34.63;20.83;;;7.40;99.90;;;;;;5093017;28;20044;-61
2021/01/03 05:28:06;;;;;;;36.60;21.83;;;7.30;99.90;;;;;;5066537;28;20039;-61
2021/01/03 05:30:31;;;;;;;34.00;21.33;;;7.30;99.90;;;;;;5098377;28;20094;-61
2021/01/03 05:33:10;;;;;;;42.87;23.07;;;7.40;99.90;;;;;;5099745;28;20048;-60
2021/01/03 05:35:39;;;;;;;38.63;23.30;;;7.40;99.90;;;;;;5078314;28;20513;-61
2021/01/03 05:38:06;;;;;;;43.63;23.63;;;7.40;99.90;;;;;;5102717;28;20055;-61
2021/01/03 05:40:39;;;;;;;42.60;21.47;;;7.40;99.90;;;;;;5100360;28;20032;-61
2021/01/03 05:43:21;;;;;;;41.07;21.10;;;7.30;99.90;;;;;;5105460;28;20036;-61
2021/01/03 05:45:58;;;;;;;39.63;21.73;;;7.30;99.90;;;;;;5096305;28;20120;-61
2021/01/03 05:48:26;;;;;;;32.20;19.07;;;7.40;99.90;;;;;;5097270;27;20051;-60
2021/01/03 05:50:52;;;;;;;35.07;21.93;;;7.40;99.90;;;;;;5092776;27;20146;-60
2021/01/03 05:53:45;;;;;;;31.23;19.43;;;7.30;99.90;;;;;;5101467;28;20127;-62
2021/01/03 05:56:21;;;;;;;44.90;22.47;;;7.30;99.90;;;;;;5072128;28;20115;-61
2021/01/03 05:58:54;;;;;;;40.50;20.43;;;7.30;99.90;;;;;;5095357;27;20067;-61
2021/01/03 06:01:21;;;;;;;37.60;21.27;;;7.20;99.90;;;;;;5090520;28;20120;-61
2021/01/03 06:04:12;;;;;;;44.37;21.57;;;7.30;99.90;;;;;;5094375;27;20047;-61
2021/01/03 06:06:49;;;;;;;40.97;22.77;;;7.30;99.90;;;;;;5044673;28;20068;-61
2021/01/03 06:09:17;;;;;;;32.87;20.33;;;7.30;99.90;;;;;;5092544;27;20039;-61
2021/01/03 06:12:07;;;;;;;29.10;19.03;;;7.30;99.90;;;;;;5093368;27;20036;-61
2021/01/03 06:14:34;;;;;;;30.73;18.47;;;7.40;99.90;;;;;;5076447;27;20123;-61
2021/01/03 06:17:32;;;;;;;34.37;19.57;;;7.30;99.90;;;;;;5092294;28;20036;-61
2021/01/03 06:20:05;;;;;;;29.40;19.80;;;7.30;99.90;;;;;;5057783;28;20032;-61
2021/01/03 06:22:53;;;;;;;29.67;18.00;;;7.30;99.90;;;;;;5091025;27;20068;-61
2021/01/03 06:25:41;;;;;;;30.23;18.60;;;7.30;99.90;;;;;;5105474;28;20052;-61
2021/01/03 06:28:12;;;;;;;33.17;20.60;;;7.30;99.90;;;;;;5063099;27;20032;-61
2021/01/03 06:30:42;;;;;;;45.63;20.57;;;7.30;99.90;;;;;;5103670;27;20171;-61
2021/01/03 06:33:35;;;;;;;43.70;19.80;;;7.20;99.90;;;;;;5081151;28;20142;-61
2021/01/03 06:36:11;;;;;;;31.43;19.17;;;7.20;99.90;;;;;;5076404;28;20024;-61
2021/01/03 06:39:04;;;;;;;29.00;18.37;;;7.20;99.90;;;;;;5072845;28;20048;-61
2021/01/03 06:41:52;;;;;;;42.97;21.30;;;7.20;99.90;;;;;;5076934;28;20048;-61
2021/01/03 06:44:26;;;;;;;34.30;18.60;;;7.20;99.90;;;;;;5082700;28;20042;-61
2021/01/03 06:47:03;;;;;;;29.08;18.40;;;7.20;99.90;;;;;;5100155;28;20089;-60
2021/01/03 06:49:51;;;;;;;32.73;18.20;;;7.20;99.90;;;;;;5103925;27;20134;-60
2021/01/03 06:52:38;;;;;;;28.30;17.10;;;7.10;99.90;;;;;;5072013;28;20473;-61
2021/01/03 06:55:31;;;;;;;32.17;19.40;;;7.20;99.90;;;;;;5065925;28;20094;-61
2021/01/03 06:58:44;;;;;;;27.67;18.60;;;7.20;99.90;;;;;;5048359;28;20062;-61
2021/01/03 07:01:30;;;;;;;28.37;17.83;;;7.30;99.90;;;;;;5067364;28;20039;-60
2021/01/03 07:03:59;;;;;;;33.93;19.63;;;7.30;99.90;;;;;;5065516;28;20036;-61
2021/01/03 07:06:36;;;;;;;26.57;17.27;;;7.30;99.90;;;;;;5096397;28;20032;-61
2021/01/03 07:09:08;;;;;;;27.20;16.40;;;7.30;99.90;;;;;;5093674;28;20066;-61
2021/01/03 07:11:50;;;;;;;25.10;15.57;;;7.20;99.90;;;;;;5099250;27;20155;-61
2021/01/03 07:14:21;;;;;;;28.17;17.27;;;7.20;99.90;;;;;;5097075;28;20072;-61
2021/01/03 07:16:49;;;;;;;27.60;17.93;;;7.20;99.90;;;;;;5093035;27;20620;-61
2021/01/03 07:19:44;;;;;;;54.47;21.67;;;7.10;99.90;;;;;;5093534;28;20040;-61
2021/01/03 07:22:14;;;;;;;48.33;21.88;;;7.20;99.90;;;;;;5073397;28;20050;-61
2021/01/03 07:24:40;;;;;;;35.27;19.97;;;7.20;99.90;;;;;;5100738;28;20122;-61
2021/01/03 07:27:20;;;;;;;43.70;21.23;;;7.10;99.90;;;;;;5080256;27;20146;-61
2021/01/03 07:29:56;;;;;;;33.83;20.63;;;7.30;99.90;;;;;;5075182;28;20067;-61
2021/01/03 07:32:27;;;;;;;34.97;20.53;;;7.30;99.90;;;;;;5100753;27;20043;-61
2021/01/03 07:34:54;;;;;;;33.83;19.03;;;7.20;99.90;;;;;;5088837;28;20043;-61
2021/01/03 07:37:31;;;;;;;28.47;17.23;;;7.30;99.90;;;;;;5099534;27;20028;-61
2021/01/03 07:40:45;;;;;;;32.27;18.70;;;7.30;99.90;;;;;;5070427;28;20065;-61
2021/01/03 07:43:11;;;;;;;27.10;18.17;;;7.30;99.90;;;;;;5052607;28;20233;-61
2021/01/03 07:45:37;;;;;;;27.27;17.40;;;7.30;99.90;;;;;;5094245;28;20124;-61
2021/01/03 07:48:03;;;;;;;31.47;17.47;;;7.40;99.90;;;;;;5098861;28;20110;-61
2021/01/03 07:50:40;;;;;;;30.73;18.63;;;7.40;99.90;;;;;;5095818;28;20435;-60
2021/01/03 07:53:34;;;;;;;27.67;16.10;;;7.50;99.90;;;;;;5099126;28;20060;-61
2021/01/03 07:56:29;;;;;;;31.23;17.23;;;7.40;99.90;;;;;;5070441;28;20056;-60
2021/01/03 07:58:57;;;;;;;25.55;17.27;;;7.40;99.90;;;;;;5068053;28;20039;-60
2021/01/03 08:01:29;;;;;;;26.50;15.83;;;7.40;99.90;;;;;;5094005;28;20341;-60
2021/01/03 08:03:54;;;;;;;25.03;16.93;;;7.40;99.90;;;;;;5087696;28;20067;-61
2021/01/03 08:06:35;;;;;;;26.30;17.17;;;7.40;99.90;;;;;;5077620;28;20060;-61
2021/01/03 08:09:02;;;;;;;25.03;17.10;;;7.50;99.90;;;;;;5072223;28;20129;-60
2021/01/03 08:11:40;;;;;;;28.67;18.77;;;7.40;99.90;;;;;;5094772;28;20032;-60
2021/01/03 08:14:13;;;;;;;25.67;16.00;;;7.50;99.90;;;;;;5104154;28;20119;-61
2021/01/03 08:16:40;;;;;;;25.40;15.63;;;7.40;99.90;;;;;;5096682;28;20036;-61
2021/01/03 08:19:09;;;;;;;25.57;16.33;;;7.50;99.90;;;;;;5099697;28;20415;-61
2021/01/03 08:21:55;;;;;;;24.23;16.80;;;7.50;99.90;;;;;;5087250;27;20122;-60
2021/01/03 08:24:21;;;;;;;22.23;15.40;;;7.70;99.90;;;;;;5081532;28;20039;-61
2021/01/03 08:27:13;;;;;;;23.10;14.97;;;7.70;99.90;;;;;;5098053;27;20032;-61
2021/01/03 08:29:54;;;;;;;22.77;16.03;;;7.60;99.90;;;;;;5072894;27;20142;-61
2021/01/03 08:32:31;;;;;;;23.40;15.20;;;7.70;99.90;;;;;;5097906;28;20035;-61
2021/01/03 08:35:00;;;;;;;18.87;13.03;;;7.80;99.90;;;;;;5098340;28;20123;-61
2021/01/03 08:37:30;;;;;;;21.00;14.20;;;7.70;99.90;;;;;;5094727;28;20032;-61
2021/01/03 08:39:56;;;;;;;19.10;14.47;;;7.60;99.90;;;;;;5098932;28;20071;-61
2021/01/03 08:42:34;;;;;;;19.87;13.97;;;7.70;99.90;;;;;;5095596;28;20126;-61
2021/01/03 08:45:01;;;;;;;18.33;13.03;;;7.80;99.90;;;;;;5043808;28;20554;-61
2021/01/03 08:47:37;;;;;;;21.07;11.83;;;7.80;99.90;;;;;;5075167;28;20040;-60
2021/01/03 08:50:35;;;;;;;19.10;12.83;;;7.80;99.90;;;;;;5101035;28;20071;-61
2021/01/03 08:53:16;;;;;;;16.90;11.47;;;7.80;99.90;;;;;;5031485;28;20089;-61
2021/01/03 08:55:41;;;;;;;16.53;11.63;;;7.90;99.90;;;;;;5101018;28;20036;-61
2021/01/03 08:58:17;;;;;;;15.73;11.47;;;7.90;99.90;;;;;;5080332;28;20047;-58
2021/01/03 09:00:47;;;;;;;15.93;12.00;;;8.00;99.90;;;;;;5102952;28;20032;-57
2021/01/03 09:03:19;;;;;;;15.20;10.33;;;8.00;99.90;;;;;;5080049;28;20498;-58
2021/01/03 09:05:47;;;;;;;13.20;10.37;;;8.00;99.90;;;;;;5104954;28;20115;-57
2021/01/03 09:08:35;;;;;;;12.63;9.20;;;8.00;99.90;;;;;;5098357;28;20040;-61
2021/01/03 09:11:08;;;;;;;12.97;10.13;;;8.00;99.90;;;;;;5044793;28;20048;-61
2021/01/03 09:13:43;;;;;;;13.13;9.77;;;8.00;99.90;;;;;;5099375;28;20044;-61
2021/01/03 09:16:32;;;;;;;9.97;7.83;;;8.10;99.90;;;;;;5103382;28;20043;-61
2021/01/03 09:19:24;;;;;;;10.20;8.27;;;8.00;99.90;;;;;;5041840;28;20519;-61
2021/01/03 09:21:57;;;;;;;10.37;8.00;;;7.90;99.90;;;;;;5089482;27;21040;-61
2021/01/03 09:24:32;;;;;;;10.23;7.77;;;7.90;99.90;;;;;;5097640;28;20259;-61
2021/01/03 09:27:01;;;;;;;11.87;7.43;;;8.20;99.90;;;;;;5102243;28;20047;-60
2021/01/03 09:29:37;;;;;;;10.47;8.17;;;8.20;99.90;;;;;;5100497;27;20043;-61
2021/01/03 09:32:22;;;;;;;9.30;7.57;;;8.20;99.90;;;;;;5106496;27;20040;-61
2021/01/03 09:35:16;;;;;;;10.43;7.20;;;8.20;99.90;;;;;;5092167;28;20036;-61
2021/01/03 09:38:20;;;;;;;8.67;6.80;;;8.30;99.90;;;;;;5062772;28;20050;-59
2021/01/03 09:41:12;;;;;;;8.77;6.87;;;8.50;99.90;;;;;;5009519;28;20051;-61
2021/01/03 09:44:07;;;;;;;9.03;6.70;;;8.60;99.90;;;;;;5078141;28;20031;-61
2021/01/03 09:47:08;;;;;;;8.30;6.95;;;8.70;99.90;;;;;;5041225;28;20139;-61
2021/01/03 09:49:36;;;;;;;9.27;6.83;;;8.60;99.90;;;;;;4954122;28;20049;-61
2021/01/03 09:52:32;;;;;;;7.13;6.43;;;8.60;99.90;;;;;;5024883;28;20129;-62
2021/01/03 09:55:12;;;;;;;8.13;6.60;;;8.70;99.90;;;;;;4957135;28;20044;-61
2021/01/03 09:57:52;;;;;;;8.00;6.27;;;8.60;99.90;;;;;;5014940;28;20115;-61
2021/01/03 10:00:22;;;;;;;7.57;5.80;;;8.70;99.90;;;;;;5097710;27;20028;-61
2021/01/03 10:02:48;;;;;;;7.83;6.20;;;8.80;99.90;;;;;;5083084;28;20039;-61
2021/01/03 10:05:38;;;;;;;8.00;5.37;;;8.90;99.90;;;;;;5097927;28;20048;-62
2021/01/03 10:08:07;;;;;;;6.70;5.33;;;8.90;99.90;;;;;;5043561;28;20626;-61
2021/01/03 10:10:40;;;;;;;9.20;5.93;;;8.90;99.90;;;;;;5094399;28;20077;-61
2021/01/03 10:13:08;;;;;;;7.60;6.07;;;8.80;99.90;;;;;;5110180;27;20508;-61
2021/01/03 10:15:33;;;;;;;7.63;6.50;;;8.90;99.90;;;;;;5104335;27;20020;-61
2021/01/03 10:18:03;;;;;;;8.93;5.90;;;9.00;99.90;;;;;;5110851;27;20026;-61
2021/01/03 10:20:48;;;;;;;6.93;5.90;;;9.10;99.90;;;;;;5120556;27;20497;-61
2021/01/03 10:23:38;;;;;;;7.68;6.43;;;9.20;99.90;;;;;;5112104;28;20473;-61
2021/01/03 10:26:17;;;;;;;9.07;6.43;;;9.20;99.90;;;;;;5092020;28;20062;-61
2021/01/03 10:28:43;;;;;;;8.17;6.03;;;9.00;99.90;;;;;;5106067;28;20035;-61
2021/01/03 10:31:08;;;;;;;7.77;5.87;;;9.20;99.90;;;;;;5108767;28;20031;-61
2021/01/03 10:33:34;;;;;;;7.47;5.97;;;9.30;99.90;;;;;;5113479;28;20055;-61
2021/01/03 10:36:00;;;;;;;8.10;5.63;;;9.40;99.90;;;;;;5091561;28;20500;-61
2021/01/03 10:38:25;;;;;;;6.97;5.80;;;9.50;99.90;;;;;;5107586;28;20039;-61
2021/01/03 10:40:51;;;;;;;7.10;5.77;;;9.60;99.90;;;;;;5110128;28;20480;-61
2021/01/03 10:43:16;;;;;;;7.70;6.57;;;9.60;99.90;;;;;;5087647;28;20484;-61
2021/01/03 10:45:42;;;;;;;7.23;6.10;;;9.50;99.90;;;;;;5108696;28;20047;-61
2021/01/03 10:48:10;;;;;;;7.30;6.60;;;9.40;99.90;;;;;;5108803;28;20126;-61
2021/01/03 10:50:36;;;;;;;7.17;6.43;;;9.50;99.90;;;;;;5112228;28;20111;-62
2021/01/03 10:53:02;;;;;;;7.70;6.13;;;9.50;99.90;;;;;;5110852;28;20123;-61
2021/01/03 10:55:28;;;;;;;7.43;6.10;;;9.50;99.90;;;;;;5101257;28;20099;-61
2021/01/03 10:57:54;;;;;;;7.67;6.17;;;9.50;99.90;;;;;;5105422;28;21317;-61
2021/01/03 11:00:20;;;;;;;10.37;6.43;;;9.50;99.90;;;;;;5069802;27;20993;-61
2021/01/03 11:02:46;;;;;;;8.90;6.80;;;9.50;99.90;;;;;;5096607;28;20069;-60
2021/01/03 11:05:13;;;;;;;7.40;6.10;;;9.60;99.90;;;;;;5074917;28;20378;-60
2021/01/03 11:07:38;;;;;;;8.13;7.33;;;9.50;99.90;;;;;;5099684;28;20039;-61
2021/01/03 11:10:06;;;;;;;9.00;7.27;;;9.60;99.90;;;;;;5098115;27;20370;-59
2021/01/03 11:12:31;;;;;;;8.97;5.70;;;9.60;99.90;;;;;;5099905;27;20046;-60
2021/01/03 11:18:19;;;;;;;7.37;5.43;;;10.00;99.90;;;;;;5073663;28;20073;-60
2021/01/03 11:20:45;;;;;;;8.03;6.10;;;10.00;99.90;;;;;;5095795;28;20419;-61
2021/01/03 11:26:34;;;;;;;6.10;5.33;;;9.80;99.90;;;;;;5046458;28;20165;-61
2021/01/03 11:29:01;;;;;;;4.80;3.80;;;9.70;99.90;;;;;;5099149;28;20465;-60
2021/01/03 11:31:35;;;;;;;5.53;4.57;;;9.70;99.90;;;;;;5097839;28;20114;-60
2021/01/03 11:34:02;;;;;;;5.07;3.97;;;9.70;99.90;;;;;;5097638;28;20047;-60
2021/01/03 11:36:28;;;;;;;6.57;5.00;;;9.80;99.90;;;;;;5095234;28;20035;-60
2021/01/03 11:38:54;;;;;;;5.30;4.33;;;10.00;99.90;;;;;;5102914;28;20043;-61
2021/01/03 11:41:20;;;;;;;6.30;4.10;;;9.90;99.90;;;;;;5096708;28;20055;-60
2021/01/03 11:43:46;;;;;;;6.30;4.13;;;10.30;99.90;;;;;;5098824;28;20046;-60
2021/01/03 11:46:11;;;;;;;8.60;4.68;;;10.40;99.90;;;;;;5096832;28;20035;-60
2021/01/03 11:48:37;;;;;;;7.30;4.77;;;10.50;99.90;;;;;;5085604;28;20055;-60
2021/01/03 11:51:03;;;;;;;8.33;5.27;;;10.50;99.90;;;;;;5097171;28;20040;-60
2021/01/03 11:53:29;;;;;;;7.17;5.53;;;10.50;99.90;;;;;;5098300;28;20047;-60
2021/01/03 11:55:57;;;;;;;7.65;4.53;;;10.50;99.90;;;;;;5086835;28;20472;-58
2021/01/03 11:58:23;;;;;;;5.32;4.70;;;10.60;99.90;;;;;;5101637;28;20050;-61
2021/01/03 12:00:51;;;;;;;4.90;3.85;;;10.50;99.90;;;;;;5101043;28;20044;-60
2021/01/03 12:03:17;;;;;;;4.53;3.97;;;10.40;99.90;;;;;;5094697;28;20078;-61
2021/01/03 12:05:43;;;;;;;7.53;3.77;;;10.20;99.90;;;;;;5098698;28;20059;-60
2021/01/03 12:08:08;;;;;;;4.47;3.38;;;10.20;99.90;;;;;;5092431;28;20051;-60
2021/01/03 12:10:37;;;;;;;4.23;3.83;;;10.00;99.90;;;;;;5097619;28;20039;-60
2021/01/03 12:13:03;;;;;;;5.00;3.80;;;10.00;99.90;;;;;;5092429;28;20762;-60
2021/01/03 12:15:30;;;;;;;4.27;3.57;;;10.10;99.90;;;;;;5099748;28;20043;-60
2021/01/03 12:17:56;;;;;;;6.40;3.60;;;10.10;99.90;;;;;;5081625;28;20477;-59
2021/01/03 12:20:21;;;;;;;4.50;4.07;;;10.30;99.90;;;;;;5101828;28;20157;-60
2021/01/03 12:22:50;;;;;;;4.53;3.67;;;10.40;99.90;;;;;;5095174;28;20370;-61
2021/01/03 12:25:16;;;;;;;6.10;3.10;;;10.20;99.40;;;;;;5098272;28;20048;-61
2021/01/03 12:27:42;;;;;;;3.10;2.80;;;10.20;99.90;;;;;;5092297;28;20059;-60
2021/01/03 12:30:09;;;;;;;6.10;3.47;;;10.30;99.90;;;;;;5097714;28;20513;-61
2021/01/03 12:32:34;;;;;;;3.85;2.90;;;10.20;99.50;;;;;;5094904;28;20040;-60
2021/01/03 12:35:00;;;;;;;3.10;2.90;;;10.30;99.90;;;;;;5100807;28;20481;-59
2021/01/03 12:37:26;;;;;;;3.40;3.00;;;10.30;99.60;;;;;;5098528;28;20071;-59
2021/01/03 12:39:52;;;;;;;5.85;3.67;;;10.30;99.20;;;;;;5097502;28;20494;-61
2021/01/03 12:42:21;;;;;;;5.00;3.47;;;10.20;99.40;;;;;;5087544;28;20040;-60
2021/01/03 12:44:48;;;;;;;3.30;2.40;;;10.30;99.40;;;;;;5096040;28;20081;-60
2021/01/03 12:47:15;;;;;;;4.45;2.65;;;10.30;99.10;;;;;;5083929;28;20409;-61
2021/01/03 12:49:42;;;;;;;3.97;2.38;;;10.40;99.20;;;;;;5097156;28;20126;-61
2021/01/03 12:52:08;;;;;;;3.67;2.67;;;10.60;99.40;;;;;;5098254;28;20249;-61
2021/01/03 12:54:34;;;;;;;3.65;3.10;;;10.50;98.40;;;;;;5092932;28;20132;-61
2021/01/03 12:57:00;;;;;;;6.63;3.50;;;10.50;99.70;;;;;;5094476;28;20497;-61
2021/01/03 12:59:26;;;;;;;5.32;2.85;;;10.80;99.20;;;;;;5095150;28;20031;-60
2021/01/03 13:01:52;;;;;;;7.00;2.90;;;10.90;99.10;;;;;;5081360;28;20960;-61
2021/01/03 13:04:18;;;;;;;4.15;2.30;;;10.90;99.10;;;;;;5094387;28;20043;-61
2021/01/03 13:06:45;;;;;;;3.42;2.55;;;10.90;98.50;;;;;;5099628;28;20074;-61
2021/01/03 13:09:17;;;;;;;3.58;2.60;;;10.80;98.70;;;;;;5093426;28;20044;-61
2021/01/03 13:11:43;;;;;;;4.65;3.00;;;11.10;98.10;;;;;;5100802;28;20068;-61
2021/01/03 13:14:11;;;;;;;4.20;2.60;;;11.00;98.20;;;;;;5094102;28;20201;-62
2021/01/03 13:16:37;;;;;;;4.20;2.42;;;11.00;97.70;;;;;;5100352;28;20034;-61
2021/01/03 13:19:04;;;;;;;2.92;1.95;;;11.10;96.40;;;;;;5099393;28;20086;-61
2021/01/03 13:21:30;;;;;;;5.43;2.55;;;11.00;97.40;;;;;;5078432;28;20044;-61